sensor_id;sensor_type;location;lat;lon;timestamp;temperature;humidity
48208;DHT22;33997;53.278;9.708;2022-10-16T00:00:35;12.50;96.50
48208;DHT22;33997;53.278;9.708;2022-10-16T00:03:00;12.40;96.50
48208;DHT22;33997;53.278;9.708;2022-10-16T00:05:26;12.40;96.70
48208;DHT22;33997;53.278;9.708;2022-10-16T00:07:51;12.40;96.70
48208;DHT22;33997;53.278;9.708;2022-10-16T00:10:17;12.30;96.50
48208;DHT22;33997;53.278;9.708;2022-10-16T00:12:42;12.30;96.70
48208;DHT22;33997;53.278;9.708;2022-10-16T00:15:08;12.30;96.60
48208;DHT22;33997;53.278;9.708;2022-10-16T00:17:33;12.30;96.80
48208;DHT22;33997;53.278;9.708;2022-10-16T00:19:59;12.30;96.80
48208;DHT22;33997;53.278;9.708;2022-10-16T00:22:24;12.20;96.70
48208;DHT22;33997;53.278;9.708;2022-10-16T00:24:50;12.20;96.70
48208;DHT22;33997;53.278;9.708;2022-10-16T00:27:15;12.10;96.60
48208;DHT22;33997;53.278;9.708;2022-10-16T00:29:42;12.10;96.70
48208;DHT22;33997;53.278;9.708;2022-10-16T00:32:07;12.20;96.70
48208;DHT22;33997;53.278;9.708;2022-10-16T00:34:33;12.10;96.40
48208;DHT22;33997;53.278;9.708;2022-10-16T00:36:58;12.10;96.30
48208;DHT22;33997;53.278;9.708;2022-10-16T00:39:23;12.10;96.10
48208;DHT22;33997;53.278;9.708;2022-10-16T00:41:50;12.10;95.50
48208;DHT22;33997;53.278;9.708;2022-10-16T00:46:59;12.20;95.20
48208;DHT22;33997;53.278;9.708;2022-10-16T00:49:25;12.20;95.10
48208;DHT22;33997;53.278;9.708;2022-10-16T00:51:51;12.10;94.90
48208;DHT22;33997;53.278;9.708;2022-10-16T00:54:19;12.10;94.90
48208;DHT22;33997;53.278;9.708;2022-10-16T00:56:46;12.10;94.60
48208;DHT22;33997;53.278;9.708;2022-10-16T00:59:16;12.20;94.70
48208;DHT22;33997;53.278;9.708;2022-10-16T01:01:41;12.10;94.60
48208;DHT22;33997;53.278;9.708;2022-10-16T01:04:07;12.10;94.60
48208;DHT22;33997;53.278;9.708;2022-10-16T01:09:14;12.10;94.50
48208;DHT22;33997;53.278;9.708;2022-10-16T01:11:44;12.10;94.50
48208;DHT22;33997;53.278;9.708;2022-10-16T01:14:16;12.00;94.30
48208;DHT22;33997;53.278;9.708;2022-10-16T01:16:49;12.00;94.50
48208;DHT22;33997;53.278;9.708;2022-10-16T01:22:03;12.00;94.40
48208;DHT22;33997;53.278;9.708;2022-10-16T01:24:39;12.00;94.20
48208;DHT22;33997;53.278;9.708;2022-10-16T01:27:07;12.00;94.40
48208;DHT22;33997;53.278;9.708;2022-10-16T01:29:41;11.90;94.40
48208;DHT22;33997;53.278;9.708;2022-10-16T01:32:13;11.80;94.50
48208;DHT22;33997;53.278;9.708;2022-10-16T01:34:51;11.80;94.80
48208;DHT22;33997;53.278;9.708;2022-10-16T01:37:28;11.80;94.70
48208;DHT22;33997;53.278;9.708;2022-10-16T01:39:55;11.80;94.80
48208;DHT22;33997;53.278;9.708;2022-10-16T01:42:31;11.70;94.80
48208;DHT22;33997;53.278;9.708;2022-10-16T01:44:59;11.70;94.70
48208;DHT22;33997;53.278;9.708;2022-10-16T01:47:25;11.80;94.60
48208;DHT22;33997;53.278;9.708;2022-10-16T01:49:51;11.70;94.70
48208;DHT22;33997;53.278;9.708;2022-10-16T01:52:19;11.80;94.40
48208;DHT22;33997;53.278;9.708;2022-10-16T01:54:46;11.70;94.40
48208;DHT22;33997;53.278;9.708;2022-10-16T01:57:12;11.70;94.30
48208;DHT22;33997;53.278;9.708;2022-10-16T01:59:40;11.60;94.40
48208;DHT22;33997;53.278;9.708;2022-10-16T02:02:08;11.50;94.50
48208;DHT22;33997;53.278;9.708;2022-10-16T02:04:36;11.50;94.90
48208;DHT22;33997;53.278;9.708;2022-10-16T02:07:03;11.50;94.70
48208;DHT22;33997;53.278;9.708;2022-10-16T02:09:29;11.40;94.90
48208;DHT22;33997;53.278;9.708;2022-10-16T02:11:55;11.40;94.90
48208;DHT22;33997;53.278;9.708;2022-10-16T02:14:21;11.30;95.10
48208;DHT22;33997;53.278;9.708;2022-10-16T02:16:49;11.30;95.20
48208;DHT22;33997;53.278;9.708;2022-10-16T02:19:15;11.30;95.10
48208;DHT22;33997;53.278;9.708;2022-10-16T02:21:50;11.30;95.30
48208;DHT22;33997;53.278;9.708;2022-10-16T02:26:51;11.30;95.40
48208;DHT22;33997;53.278;9.708;2022-10-16T02:29:19;11.10;95.40
48208;DHT22;33997;53.278;9.708;2022-10-16T02:31:48;11.10;95.50
48208;DHT22;33997;53.278;9.708;2022-10-16T02:34:14;11.20;95.70
48208;DHT22;33997;53.278;9.708;2022-10-16T02:36:41;11.20;95.70
48208;DHT22;33997;53.278;9.708;2022-10-16T02:39:07;11.10;95.50
48208;DHT22;33997;53.278;9.708;2022-10-16T02:41:33;11.00;95.60
48208;DHT22;33997;53.278;9.708;2022-10-16T02:43:58;11.10;95.80
48208;DHT22;33997;53.278;9.708;2022-10-16T02:46:23;11.10;96.00
48208;DHT22;33997;53.278;9.708;2022-10-16T02:48:49;11.00;95.90
48208;DHT22;33997;53.278;9.708;2022-10-16T02:51:14;11.10;96.10
48208;DHT22;33997;53.278;9.708;2022-10-16T02:53:40;11.10;95.80
48208;DHT22;33997;53.278;9.708;2022-10-16T02:56:05;11.00;95.90
48208;DHT22;33997;53.278;9.708;2022-10-16T02:58:31;11.00;96.10
48208;DHT22;33997;53.278;9.708;2022-10-16T03:00:56;10.90;96.10
48208;DHT22;33997;53.278;9.708;2022-10-16T03:03:21;10.90;96.30
48208;DHT22;33997;53.278;9.708;2022-10-16T03:05:47;10.90;96.50
48208;DHT22;33997;53.278;9.708;2022-10-16T03:08:13;10.90;96.40
48208;DHT22;33997;53.278;9.708;2022-10-16T03:10:38;10.80;96.50
48208;DHT22;33997;53.278;9.708;2022-10-16T03:13:03;10.80;96.50
48208;DHT22;33997;53.278;9.708;2022-10-16T03:15:29;10.80;96.80
48208;DHT22;33997;53.278;9.708;2022-10-16T03:17:54;10.70;96.70
48208;DHT22;33997;53.278;9.708;2022-10-16T03:20:20;10.80;96.90
48208;DHT22;33997;53.278;9.708;2022-10-16T03:22:45;10.70;96.80
48208;DHT22;33997;53.278;9.708;2022-10-16T03:25:11;10.80;96.80
48208;DHT22;33997;53.278;9.708;2022-10-16T03:27:36;10.70;96.90
48208;DHT22;33997;53.278;9.708;2022-10-16T03:30:02;10.80;96.90
48208;DHT22;33997;53.278;9.708;2022-10-16T03:32:27;10.80;96.80
48208;DHT22;33997;53.278;9.708;2022-10-16T03:34:53;10.80;96.80
48208;DHT22;33997;53.278;9.708;2022-10-16T03:37:19;10.70;96.80
48208;DHT22;33997;53.278;9.708;2022-10-16T03:39:45;10.80;96.90
48208;DHT22;33997;53.278;9.708;2022-10-16T03:42:10;10.80;96.80
48208;DHT22;33997;53.278;9.708;2022-10-16T03:44:35;10.80;96.80
48208;DHT22;33997;53.278;9.708;2022-10-16T03:47:01;10.80;96.90
48208;DHT22;33997;53.278;9.708;2022-10-16T03:49:26;10.80;96.90
48208;DHT22;33997;53.278;9.708;2022-10-16T03:51:52;10.80;96.90
48208;DHT22;33997;53.278;9.708;2022-10-16T03:54:17;10.80;96.90
48208;DHT22;33997;53.278;9.708;2022-10-16T03:56:42;10.80;96.80
48208;DHT22;33997;53.278;9.708;2022-10-16T03:59:08;10.80;97.00
48208;DHT22;33997;53.278;9.708;2022-10-16T04:01:33;10.70;96.90
48208;DHT22;33997;53.278;9.708;2022-10-16T04:03:59;10.70;97.00
48208;DHT22;33997;53.278;9.708;2022-10-16T04:06:24;10.70;97.10
48208;DHT22;33997;53.278;9.708;2022-10-16T04:08:49;10.80;97.10
48208;DHT22;33997;53.278;9.708;2022-10-16T04:11:15;10.80;97.20
48208;DHT22;33997;53.278;9.708;2022-10-16T04:13:40;10.80;97.30
48208;DHT22;33997;53.278;9.708;2022-10-16T04:16:06;10.80;97.10
48208;DHT22;33997;53.278;9.708;2022-10-16T04:18:32;10.70;97.10
48208;DHT22;33997;53.278;9.708;2022-10-16T04:21:01;10.70;97.20
48208;DHT22;33997;53.278;9.708;2022-10-16T04:23:27;10.60;97.20
48208;DHT22;33997;53.278;9.708;2022-10-16T04:25:52;10.60;97.20
48208;DHT22;33997;53.278;9.708;2022-10-16T04:28:18;10.60;97.60
48208;DHT22;33997;53.278;9.708;2022-10-16T04:30:44;10.60;97.50
48208;DHT22;33997;53.278;9.708;2022-10-16T04:33:09;10.60;97.60
48208;DHT22;33997;53.278;9.708;2022-10-16T04:35:35;10.70;97.60
48208;DHT22;33997;53.278;9.708;2022-10-16T04:38:00;10.60;97.60
48208;DHT22;33997;53.278;9.708;2022-10-16T04:40:26;10.60;97.60
48208;DHT22;33997;53.278;9.708;2022-10-16T04:42:52;10.70;97.70
48208;DHT22;33997;53.278;9.708;2022-10-16T04:45:17;10.70;97.60
48208;DHT22;33997;53.278;9.708;2022-10-16T04:47:43;10.70;97.60
48208;DHT22;33997;53.278;9.708;2022-10-16T04:50:08;10.60;97.60
48208;DHT22;33997;53.278;9.708;2022-10-16T04:52:34;10.70;97.80
48208;DHT22;33997;53.278;9.708;2022-10-16T04:54:59;10.70;97.70
48208;DHT22;33997;53.278;9.708;2022-10-16T04:57:27;10.70;97.80
48208;DHT22;33997;53.278;9.708;2022-10-16T04:59:53;10.70;97.60
48208;DHT22;33997;53.278;9.708;2022-10-16T05:02:18;10.70;97.70
48208;DHT22;33997;53.278;9.708;2022-10-16T05:04:43;10.70;97.80
48208;DHT22;33997;53.278;9.708;2022-10-16T05:07:09;10.80;97.70
48208;DHT22;33997;53.278;9.708;2022-10-16T05:09:34;10.80;97.70
48208;DHT22;33997;53.278;9.708;2022-10-16T05:12:00;10.80;97.70
48208;DHT22;33997;53.278;9.708;2022-10-16T05:14:25;10.80;97.60
48208;DHT22;33997;53.278;9.708;2022-10-16T05:16:51;10.90;97.60
48208;DHT22;33997;53.278;9.708;2022-10-16T05:19:17;10.90;97.50
48208;DHT22;33997;53.278;9.708;2022-10-16T05:21:42;10.90;97.50
48208;DHT22;33997;53.278;9.708;2022-10-16T05:24:07;10.90;97.60
48208;DHT22;33997;53.278;9.708;2022-10-16T05:26:34;10.80;97.40
48208;DHT22;33997;53.278;9.708;2022-10-16T05:28:59;10.80;97.60
48208;DHT22;33997;53.278;9.708;2022-10-16T05:31:25;10.80;97.60
48208;DHT22;33997;53.278;9.708;2022-10-16T05:33:50;10.90;97.70
48208;DHT22;33997;53.278;9.708;2022-10-16T05:36:16;10.90;97.80
48208;DHT22;33997;53.278;9.708;2022-10-16T05:38:43;10.90;97.70
48208;DHT22;33997;53.278;9.708;2022-10-16T05:41:08;11.00;97.80
48208;DHT22;33997;53.278;9.708;2022-10-16T05:43:34;11.00;97.60
48208;DHT22;33997;53.278;9.708;2022-10-16T05:46:00;10.90;97.60
48208;DHT22;33997;53.278;9.708;2022-10-16T05:48:26;11.00;97.80
48208;DHT22;33997;53.278;9.708;2022-10-16T05:50:58;10.90;97.80
48208;DHT22;33997;53.278;9.708;2022-10-16T05:53:24;10.90;97.80
48208;DHT22;33997;53.278;9.708;2022-10-16T05:55:56;11.00;97.90
48208;DHT22;33997;53.278;9.708;2022-10-16T05:58:22;11.00;98.10
48208;DHT22;33997;53.278;9.708;2022-10-16T06:00:58;11.00;98.20
48208;DHT22;33997;53.278;9.708;2022-10-16T06:03:23;11.00;98.10
48208;DHT22;33997;53.278;9.708;2022-10-16T06:05:49;11.10;98.40
48208;DHT22;33997;53.278;9.708;2022-10-16T06:08:15;11.10;98.30
48208;DHT22;33997;53.278;9.708;2022-10-16T06:10:40;11.10;98.30
48208;DHT22;33997;53.278;9.708;2022-10-16T06:13:06;11.10;98.30
48208;DHT22;33997;53.278;9.708;2022-10-16T06:15:31;11.10;98.50
48208;DHT22;33997;53.278;9.708;2022-10-16T06:17:56;11.10;98.70
48208;DHT22;33997;53.278;9.708;2022-10-16T06:20:22;11.10;98.50
48208;DHT22;33997;53.278;9.708;2022-10-16T06:22:47;11.10;98.60
48208;DHT22;33997;53.278;9.708;2022-10-16T06:25:12;11.10;98.60
48208;DHT22;33997;53.278;9.708;2022-10-16T06:27:41;11.10;98.90
48208;DHT22;33997;53.278;9.708;2022-10-16T06:30:06;11.20;98.90
48208;DHT22;33997;53.278;9.708;2022-10-16T06:32:32;11.20;98.90
48208;DHT22;33997;53.278;9.708;2022-10-16T06:34:57;11.20;98.80
48208;DHT22;33997;53.278;9.708;2022-10-16T06:37:23;11.20;98.90
48208;DHT22;33997;53.278;9.708;2022-10-16T06:39:50;11.20;98.90
48208;DHT22;33997;53.278;9.708;2022-10-16T06:42:17;11.30;99.00
48208;DHT22;33997;53.278;9.708;2022-10-16T06:44:43;11.30;98.90
48208;DHT22;33997;53.278;9.708;2022-10-16T06:47:08;11.30;99.00
48208;DHT22;33997;53.278;9.708;2022-10-16T06:49:33;11.40;99.00
48208;DHT22;33997;53.278;9.708;2022-10-16T06:51:59;11.40;99.00
48208;DHT22;33997;53.278;9.708;2022-10-16T06:54:24;11.40;98.90
48208;DHT22;33997;53.278;9.708;2022-10-16T06:56:50;11.40;99.00
48208;DHT22;33997;53.278;9.708;2022-10-16T06:59:16;11.50;98.90
48208;DHT22;33997;53.278;9.708;2022-10-16T07:01:41;11.50;98.90
48208;DHT22;33997;53.278;9.708;2022-10-16T07:04:07;11.60;98.80
48208;DHT22;33997;53.278;9.708;2022-10-16T07:06:33;11.70;98.80
48208;DHT22;33997;53.278;9.708;2022-10-16T07:09:00;11.70;98.70
48208;DHT22;33997;53.278;9.708;2022-10-16T07:11:26;11.80;98.70
48208;DHT22;33997;53.278;9.708;2022-10-16T07:13:51;11.80;98.50
48208;DHT22;33997;53.278;9.708;2022-10-16T07:16:18;11.90;98.40
48208;DHT22;33997;53.278;9.708;2022-10-16T07:18:44;12.00;98.30
48208;DHT22;33997;53.278;9.708;2022-10-16T07:21:15;12.00;98.20
48208;DHT22;33997;53.278;9.708;2022-10-16T07:23:41;12.00;98.20
48208;DHT22;33997;53.278;9.708;2022-10-16T07:26:07;12.10;98.10
48208;DHT22;33997;53.278;9.708;2022-10-16T07:28:32;12.10;98.00
48208;DHT22;33997;53.278;9.708;2022-10-16T07:31:02;12.20;97.90
48208;DHT22;33997;53.278;9.708;2022-10-16T07:33:27;12.30;97.80
48208;DHT22;33997;53.278;9.708;2022-10-16T07:35:53;12.30;97.50
48208;DHT22;33997;53.278;9.708;2022-10-16T07:38:19;12.50;97.30
48208;DHT22;33997;53.278;9.708;2022-10-16T07:40:45;12.50;97.00
48208;DHT22;33997;53.278;9.708;2022-10-16T07:43:10;12.60;96.90
48208;DHT22;33997;53.278;9.708;2022-10-16T07:45:36;12.80;96.70
48208;DHT22;33997;53.278;9.708;2022-10-16T07:48:02;12.90;96.50
48208;DHT22;33997;53.278;9.708;2022-10-16T07:50:27;13.10;96.10
48208;DHT22;33997;53.278;9.708;2022-10-16T07:52:53;13.10;95.80
48208;DHT22;33997;53.278;9.708;2022-10-16T07:55:18;13.40;95.60
48208;DHT22;33997;53.278;9.708;2022-10-16T07:57:43;13.50;95.30
48208;DHT22;33997;53.278;9.708;2022-10-16T08:00:09;13.70;94.80
48208;DHT22;33997;53.278;9.708;2022-10-16T08:02:39;13.90;94.10
48208;DHT22;33997;53.278;9.708;2022-10-16T08:05:05;14.10;93.90
48208;DHT22;33997;53.278;9.708;2022-10-16T08:07:30;14.20;93.20
48208;DHT22;33997;53.278;9.708;2022-10-16T08:09:56;14.30;92.40
48208;DHT22;33997;53.278;9.708;2022-10-16T08:12:23;14.50;92.00
48208;DHT22;33997;53.278;9.708;2022-10-16T08:14:48;14.60;92.10
48208;DHT22;33997;53.278;9.708;2022-10-16T08:17:14;14.70;91.40
48208;DHT22;33997;53.278;9.708;2022-10-16T08:19:43;14.70;90.90
48208;DHT22;33997;53.278;9.708;2022-10-16T08:22:09;14.80;90.00
48208;DHT22;33997;53.278;9.708;2022-10-16T08:24:34;14.90;90.60
48208;DHT22;33997;53.278;9.708;2022-10-16T08:27:00;14.80;89.90
48208;DHT22;33997;53.278;9.708;2022-10-16T08:29:25;14.90;90.30
48208;DHT22;33997;53.278;9.708;2022-10-16T08:31:50;14.90;89.60
48208;DHT22;33997;53.278;9.708;2022-10-16T08:34:16;15.00;90.20
48208;DHT22;33997;53.278;9.708;2022-10-16T08:36:41;14.90;89.40
48208;DHT22;33997;53.278;9.708;2022-10-16T08:39:07;15.00;89.70
48208;DHT22;33997;53.278;9.708;2022-10-16T08:41:41;15.10;89.40
48208;DHT22;33997;53.278;9.708;2022-10-16T08:47:02;15.20;89.20
48208;DHT22;33997;53.278;9.708;2022-10-16T08:49:31;15.40;89.30
48208;DHT22;33997;53.278;9.708;2022-10-16T08:51:56;15.40;88.70
48208;DHT22;33997;53.278;9.708;2022-10-16T08:54:24;15.40;87.90
48208;DHT22;33997;53.278;9.708;2022-10-16T08:56:53;15.50;88.00
48208;DHT22;33997;53.278;9.708;2022-10-16T08:59:19;15.50;87.40
48208;DHT22;33997;53.278;9.708;2022-10-16T09:01:45;15.50;86.80
48208;DHT22;33997;53.278;9.708;2022-10-16T09:06:56;15.80;87.60
48208;DHT22;33997;53.278;9.708;2022-10-16T09:09:30;15.80;86.10
48208;DHT22;33997;53.278;9.708;2022-10-16T09:14:32;15.80;86.30
48208;DHT22;33997;53.278;9.708;2022-10-16T09:17:22;16.10;86.40
48208;DHT22;33997;53.278;9.708;2022-10-16T09:19:51;16.20;85.10
48208;DHT22;33997;53.278;9.708;2022-10-16T09:22:18;16.20;84.10
48208;DHT22;33997;53.278;9.708;2022-10-16T09:24:46;16.20;83.80
48208;DHT22;33997;53.278;9.708;2022-10-16T09:27:12;16.30;83.60
48208;DHT22;33997;53.278;9.708;2022-10-16T09:29:38;16.30;82.80
48208;DHT22;33997;53.278;9.708;2022-10-16T09:32:10;16.30;84.10
48208;DHT22;33997;53.278;9.708;2022-10-16T09:34:37;16.30;82.90
48208;DHT22;33997;53.278;9.708;2022-10-16T09:37:05;16.50;82.80
48208;DHT22;33997;53.278;9.708;2022-10-16T09:39:52;16.60;82.50
48208;DHT22;33997;53.278;9.708;2022-10-16T09:42:18;16.50;82.30
48208;DHT22;33997;53.278;9.708;2022-10-16T09:44:51;16.40;82.60
48208;DHT22;33997;53.278;9.708;2022-10-16T09:47:19;16.30;82.40
48208;DHT22;33997;53.278;9.708;2022-10-16T09:49:55;16.50;83.20
48208;DHT22;33997;53.278;9.708;2022-10-16T09:52:23;16.60;82.50
48208;DHT22;33997;53.278;9.708;2022-10-16T09:54:49;16.70;82.10
48208;DHT22;33997;53.278;9.708;2022-10-16T09:57:15;16.80;81.80
48208;DHT22;33997;53.278;9.708;2022-10-16T09:59:47;16.80;80.30
48208;DHT22;33997;53.278;9.708;2022-10-16T10:02:13;16.90;80.40
48208;DHT22;33997;53.278;9.708;2022-10-16T10:04:40;17.10;81.40
48208;DHT22;33997;53.278;9.708;2022-10-16T10:07:07;17.10;81.40
48208;DHT22;33997;53.278;9.708;2022-10-16T10:09:42;17.10;79.30
48208;DHT22;33997;53.278;9.708;2022-10-16T10:12:19;17.20;79.10
48208;DHT22;33997;53.278;9.708;2022-10-16T10:14:48;17.10;79.00
48208;DHT22;33997;53.278;9.708;2022-10-16T10:19:50;17.40;78.50
48208;DHT22;33997;53.278;9.708;2022-10-16T10:22:23;17.60;78.60
48208;DHT22;33997;53.278;9.708;2022-10-16T10:24:55;17.50;77.20
48208;DHT22;33997;53.278;9.708;2022-10-16T10:27:21;17.60;76.60
48208;DHT22;33997;53.278;9.708;2022-10-16T10:29:53;17.80;77.40
48208;DHT22;33997;53.278;9.708;2022-10-16T10:32:25;17.80;76.20
48208;DHT22;33997;53.278;9.708;2022-10-16T10:34:56;17.80;76.20
48208;DHT22;33997;53.278;9.708;2022-10-16T10:42:50;17.70;75.80
48208;DHT22;33997;53.278;9.708;2022-10-16T10:45:24;17.50;76.40
48208;DHT22;33997;53.278;9.708;2022-10-16T10:50:39;17.80;76.60
48208;DHT22;33997;53.278;9.708;2022-10-16T10:55:37;18.00;74.70
48208;DHT22;33997;53.278;9.708;2022-10-16T10:58:10;18.20;75.20
48208;DHT22;33997;53.278;9.708;2022-10-16T11:03:13;18.50;73.80
48208;DHT22;33997;53.278;9.708;2022-10-16T11:05:44;18.50;72.70
48208;DHT22;33997;53.278;9.708;2022-10-16T11:08:16;18.60;73.30
48208;DHT22;33997;53.278;9.708;2022-10-16T11:10:45;18.70;71.80
48208;DHT22;33997;53.278;9.708;2022-10-16T11:15:59;18.70;70.50
48208;DHT22;33997;53.278;9.708;2022-10-16T11:18:59;18.60;70.30
48208;DHT22;33997;53.278;9.708;2022-10-16T11:21:18;18.00;71.70
48208;DHT22;33997;53.278;9.708;2022-10-16T11:24:08;18.30;72.10
48208;DHT22;33997;53.278;9.708;2022-10-16T11:26:31;18.20;73.10
48208;DHT22;33997;53.278;9.708;2022-10-16T11:28:58;18.10;72.80
48208;DHT22;33997;53.278;9.708;2022-10-16T11:31:29;18.30;72.30
48208;DHT22;33997;53.278;9.708;2022-10-16T11:34:09;18.70;71.50
48208;DHT22;33997;53.278;9.708;2022-10-16T11:36:45;19.30;71.20
48208;DHT22;33997;53.278;9.708;2022-10-16T11:39:19;19.40;68.90
48208;DHT22;33997;53.278;9.708;2022-10-16T11:41:49;19.50;68.30
48208;DHT22;33997;53.278;9.708;2022-10-16T11:44:31;19.50;68.70
48208;DHT22;33997;53.278;9.708;2022-10-16T11:47:01;19.90;67.60
48208;DHT22;33997;53.278;9.708;2022-10-16T11:49:30;19.60;67.90
48208;DHT22;33997;53.278;9.708;2022-10-16T11:57:11;19.70;69.10
48208;DHT22;33997;53.278;9.708;2022-10-16T11:59:42;20.20;66.80
48208;DHT22;33997;53.278;9.708;2022-10-16T12:04:47;20.50;65.30
48208;DHT22;33997;53.278;9.708;2022-10-16T12:07:18;20.00;65.00
48208;DHT22;33997;53.278;9.708;2022-10-16T12:09:45;19.60;66.20
48208;DHT22;33997;53.278;9.708;2022-10-16T12:12:28;19.50;67.40
48208;DHT22;33997;53.278;9.708;2022-10-16T12:15:25;19.40;67.60
48208;DHT22;33997;53.278;9.708;2022-10-16T12:17:47;19.00;67.60
48208;DHT22;33997;53.278;9.708;2022-10-16T12:22:49;18.00;70.10
48208;DHT22;33997;53.278;9.708;2022-10-16T12:25:22;17.70;70.80
48208;DHT22;33997;53.278;9.708;2022-10-16T12:28:01;17.50;71.20
48208;DHT22;33997;53.278;9.708;2022-10-16T12:30:28;17.60;71.00
48208;DHT22;33997;53.278;9.708;2022-10-16T12:32:55;17.90;69.20
48208;DHT22;33997;53.278;9.708;2022-10-16T12:35:25;18.50;69.10
48208;DHT22;33997;53.278;9.708;2022-10-16T12:37:51;18.60;68.40
48208;DHT22;33997;53.278;9.708;2022-10-16T12:40:25;18.30;69.30
48208;DHT22;33997;53.278;9.708;2022-10-16T12:42:51;18.10;69.70
48208;DHT22;33997;53.278;9.708;2022-10-16T12:45:26;18.10;71.00
48208;DHT22;33997;53.278;9.708;2022-10-16T12:47:53;19.10;69.20
48208;DHT22;33997;53.278;9.708;2022-10-16T12:50:38;19.50;65.80
48208;DHT22;33997;53.278;9.708;2022-10-16T12:53:17;19.10;66.60
48208;DHT22;33997;53.278;9.708;2022-10-16T12:55:45;18.80;68.00
48208;DHT22;33997;53.278;9.708;2022-10-16T13:00:59;18.60;66.90
48208;DHT22;33997;53.278;9.708;2022-10-16T13:03:46;18.40;67.00
48208;DHT22;33997;53.278;9.708;2022-10-16T13:06:28;18.50;66.40
48208;DHT22;33997;53.278;9.708;2022-10-16T13:19:13;18.60;64.70
48208;DHT22;33997;53.278;9.708;2022-10-16T13:21:48;18.80;64.90
48208;DHT22;33997;53.278;9.708;2022-10-16T13:24:25;19.90;62.70
48208;DHT22;33997;53.278;9.708;2022-10-16T13:26:55;19.60;64.40
48208;DHT22;33997;53.278;9.708;2022-10-16T13:29:21;20.10;61.10
48208;DHT22;33997;53.278;9.708;2022-10-16T13:31:47;20.80;59.60
48208;DHT22;33997;53.278;9.708;2022-10-16T13:34:14;21.10;57.10
48208;DHT22;33997;53.278;9.708;2022-10-16T13:36:43;21.40;55.50
48208;DHT22;33997;53.278;9.708;2022-10-16T13:39:10;21.30;55.30
48208;DHT22;33997;53.278;9.708;2022-10-16T13:41:36;20.80;55.50
48208;DHT22;33997;53.278;9.708;2022-10-16T13:44:02;20.00;58.00
48208;DHT22;33997;53.278;9.708;2022-10-16T13:46:27;19.60;59.60
48208;DHT22;33997;53.278;9.708;2022-10-16T13:48:58;19.90;58.20
48208;DHT22;33997;53.278;9.708;2022-10-16T13:51:24;19.80;58.60
48208;DHT22;33997;53.278;9.708;2022-10-16T13:53:50;19.50;58.50
48208;DHT22;33997;53.278;9.708;2022-10-16T13:56:16;20.00;56.90
48208;DHT22;33997;53.278;9.708;2022-10-16T13:58:42;20.00;56.40
48208;DHT22;33997;53.278;9.708;2022-10-16T14:01:20;20.10;56.10
48208;DHT22;33997;53.278;9.708;2022-10-16T14:03:48;20.10;55.00
48208;DHT22;33997;53.278;9.708;2022-10-16T14:06:15;20.30;55.00
48208;DHT22;33997;53.278;9.708;2022-10-16T14:08:42;20.30;54.20
48208;DHT22;33997;53.278;9.708;2022-10-16T14:11:08;20.40;54.00
48208;DHT22;33997;53.278;9.708;2022-10-16T14:13:36;20.50;54.70
48208;DHT22;33997;53.278;9.708;2022-10-16T14:16:05;20.80;55.20
48208;DHT22;33997;53.278;9.708;2022-10-16T14:18:31;20.80;53.50
48208;DHT22;33997;53.278;9.708;2022-10-16T14:21:02;20.50;54.80
48208;DHT22;33997;53.278;9.708;2022-10-16T14:23:29;20.30;55.30
48208;DHT22;33997;53.278;9.708;2022-10-16T14:28:36;19.40;57.50
48208;DHT22;33997;53.278;9.708;2022-10-16T14:31:03;19.30;57.70
48208;DHT22;33997;53.278;9.708;2022-10-16T14:33:45;19.10;58.10
48208;DHT22;33997;53.278;9.708;2022-10-16T14:36:12;19.00;59.50
48208;DHT22;33997;53.278;9.708;2022-10-16T14:38:39;18.70;59.20
48208;DHT22;33997;53.278;9.708;2022-10-16T14:41:05;18.50;60.50
48208;DHT22;33997;53.278;9.708;2022-10-16T14:45:56;18.10;61.40
48208;DHT22;33997;53.278;9.708;2022-10-16T14:48:22;18.00;62.50
48208;DHT22;33997;53.278;9.708;2022-10-16T14:50:47;17.90;62.20
48208;DHT22;33997;53.278;9.708;2022-10-16T14:53:13;17.90;62.30
48208;DHT22;33997;53.278;9.708;2022-10-16T14:55:39;17.80;62.30
48208;DHT22;33997;53.278;9.708;2022-10-16T14:58:05;17.70;62.30
48208;DHT22;33997;53.278;9.708;2022-10-16T15:00:31;17.60;63.70
48208;DHT22;33997;53.278;9.708;2022-10-16T15:02:56;17.60;64.60
48208;DHT22;33997;53.278;9.708;2022-10-16T15:05:22;17.60;64.60
48208;DHT22;33997;53.278;9.708;2022-10-16T15:07:49;17.60;64.80
48208;DHT22;33997;53.278;9.708;2022-10-16T15:10:16;17.80;64.00
48208;DHT22;33997;53.278;9.708;2022-10-16T15:12:41;17.90;64.40
48208;DHT22;33997;53.278;9.708;2022-10-16T15:15:21;17.90;64.10
48208;DHT22;33997;53.278;9.708;2022-10-16T15:17:54;17.90;65.20
48208;DHT22;33997;53.278;9.708;2022-10-16T15:20:25;18.10;64.40
48208;DHT22;33997;53.278;9.708;2022-10-16T15:22:50;18.00;64.10
48208;DHT22;33997;53.278;9.708;2022-10-16T15:25:25;18.40;63.30
48208;DHT22;33997;53.278;9.708;2022-10-16T15:27:51;18.60;62.50
48208;DHT22;33997;53.278;9.708;2022-10-16T15:30:16;18.80;61.70
48208;DHT22;33997;53.278;9.708;2022-10-16T15:32:42;18.90;60.80
48208;DHT22;33997;53.278;9.708;2022-10-16T15:35:10;19.00;60.90
48208;DHT22;33997;53.278;9.708;2022-10-16T15:37:36;19.30;59.60
48208;DHT22;33997;53.278;9.708;2022-10-16T15:40:01;19.30;59.30
48208;DHT22;33997;53.278;9.708;2022-10-16T15:42:27;19.20;60.00
48208;DHT22;33997;53.278;9.708;2022-10-16T15:44:52;19.00;60.50
48208;DHT22;33997;53.278;9.708;2022-10-16T15:47:17;18.50;61.90
48208;DHT22;33997;53.278;9.708;2022-10-16T15:49:43;18.10;63.40
48208;DHT22;33997;53.278;9.708;2022-10-16T15:52:08;17.70;64.50
48208;DHT22;33997;53.278;9.708;2022-10-16T15:54:34;17.30;66.70
48208;DHT22;33997;53.278;9.708;2022-10-16T15:56:59;17.00;67.20
48208;DHT22;33997;53.278;9.708;2022-10-16T15:59:25;16.60;68.40
48208;DHT22;33997;53.278;9.708;2022-10-16T16:01:50;16.40;69.40
48208;DHT22;33997;53.278;9.708;2022-10-16T16:04:15;16.30;70.40
48208;DHT22;33997;53.278;9.708;2022-10-16T16:06:42;16.00;71.10
48208;DHT22;33997;53.278;9.708;2022-10-16T16:09:13;15.70;72.00
48208;DHT22;33997;53.278;9.708;2022-10-16T16:11:39;15.50;73.00
48208;DHT22;33997;53.278;9.708;2022-10-16T16:14:05;15.20;74.20
48208;DHT22;33997;53.278;9.708;2022-10-16T16:16:30;15.00;75.10
48208;DHT22;33997;53.278;9.708;2022-10-16T16:18:57;15.00;75.50
48208;DHT22;33997;53.278;9.708;2022-10-16T16:21:22;14.80;76.30
48208;DHT22;33997;53.278;9.708;2022-10-16T16:23:48;14.60;76.60
48208;DHT22;33997;53.278;9.708;2022-10-16T16:26:15;14.60;77.00
48208;DHT22;33997;53.278;9.708;2022-10-16T16:28:41;14.40;77.20
48208;DHT22;33997;53.278;9.708;2022-10-16T16:31:07;14.10;78.20
48208;DHT22;33997;53.278;9.708;2022-10-16T16:33:32;14.00;78.60
48208;DHT22;33997;53.278;9.708;2022-10-16T16:35:59;13.90;79.10
48208;DHT22;33997;53.278;9.708;2022-10-16T16:38:25;13.60;79.90